Time;durP1;ratioP1;P1;durP2;ratioP2;P2;SDS_P1;SDS_P2;PMS_P1;PMS_P2;Temp;Humidity;BMP_temperature;BMP_pressure;BME280_temperature;BME280_humidity;BME280_pressure;Samples;Min_cycle;Max_cycle;Signal;HPM_P1;HPM_P2
2022/07/15 00:01:08;;;;;;;4.38;0.82;;;19.80;71.20;;;;;;5074006;28;20048;-75
2022/07/15 00:03:33;;;;;;;6.20;0.70;;;19.90;70.60;;;;;;5074037;28;20020;-75
2022/07/15 00:05:59;;;;;;;4.38;0.70;;;19.80;70.60;;;;;;5074278;28;20020;-75
2022/07/15 00:08:27;;;;;;;2.95;0.40;;;19.80;70.70;;;;;;5074113;28;20031;-75
2022/07/15 00:10:52;;;;;;;8.27;0.43;;;19.90;71.00;;;;;;5073766;28;20029;-75
2022/07/15 00:13:18;;;;;;;3.50;0.52;;;19.90;71.00;;;;;;5073774;28;20047;-75
2022/07/15 00:15:44;;;;;;;5.68;0.55;;;20.00;70.80;;;;;;5073674;28;20028;-75
2022/07/15 00:18:09;;;;;;;6.15;0.77;;;20.00;70.70;;;;;;5073703;28;20029;-75
2022/07/15 00:20:35;;;;;;;4.50;0.50;;;20.00;70.70;;;;;;5073771;28;20017;-75
2022/07/15 00:23:05;;;;;;;5.32;0.65;;;20.00;70.70;;;;;;5073548;28;20052;-75
2022/07/15 00:25:31;;;;;;;3.67;0.70;;;20.00;71.00;;;;;;5073557;28;20021;-75
2022/07/15 00:28:04;;;;;;;3.78;0.52;;;20.10;71.00;;;;;;5073547;28;20089;-75
2022/07/15 00:30:35;;;;;;;5.65;0.60;;;20.20;70.90;;;;;;5073760;28;20464;-75
2022/07/15 00:33:01;;;;;;;2.72;0.60;;;20.20;70.90;;;;;;5073323;28;20161;-75
2022/07/15 00:35:28;;;;;;;3.58;0.63;;;20.20;70.70;;;;;;5073485;28;20035;-75
2022/07/15 00:37:53;;;;;;;4.22;0.73;;;20.20;70.70;;;;;;5073516;28;20051;-75
2022/07/15 00:40:19;;;;;;;5.30;0.40;;;20.20;70.50;;;;;;5073515;28;20511;-75
2022/07/15 00:42:45;;;;;;;4.65;0.60;;;20.20;70.80;;;;;;5073293;28;20044;-75
2022/07/15 00:45:16;;;;;;;5.97;0.70;;;20.10;70.50;;;;;;5073425;28;20031;-75
2022/07/15 00:47:50;;;;;;;5.38;0.95;;;20.00;70.60;;;;;;5073366;28;20025;-75
2022/07/15 00:50:17;;;;;;;4.57;0.57;;;20.00;70.90;;;;;;5073389;28;20094;-75
2022/07/15 00:52:45;;;;;;;4.00;0.55;;;19.90;70.90;;;;;;5073405;28;20422;-75
2022/07/15 00:55:13;;;;;;;3.20;0.70;;;19.90;71.60;;;;;;5073004;28;20020;-75
2022/07/15 00:57:45;;;;;;;1.88;0.45;;;19.90;71.00;;;;;;5073189;28;20476;-75
2022/07/15 01:00:11;;;;;;;;;;;19.90;71.40;;;;;;5073337;28;20112;-75
2022/07/15 01:02:39;;;;;;;5.90;1.40;;;20.00;71.50;;;;;;5073289;28;19908;-75
2022/07/15 01:05:07;;;;;;;3.42;0.70;;;20.00;71.10;;;;;;5073389;28;20021;-75
2022/07/15 01:07:33;;;;;;;3.97;0.70;;;20.00;71.10;;;;;;5072866;28;20032;-75
2022/07/15 01:09:59;;;;;;;5.57;0.85;;;19.90;71.10;;;;;;5072984;28;20024;-75
2022/07/15 01:12:26;;;;;;;2.63;0.43;;;19.90;71.20;;;;;;5072950;28;20043;-75
2022/07/15 01:14:52;;;;;;;5.25;0.68;;;19.90;71.50;;;;;;5072988;28;20025;-75
2022/07/15 01:17:18;;;;;;;4.43;0.40;;;20.00;71.00;;;;;;5073021;28;20025;-75
2022/07/15 01:19:44;;;;;;;4.65;0.50;;;20.00;71.20;;;;;;5072793;28;20078;-75
2022/07/15 01:22:09;;;;;;;4.30;0.52;;;20.10;71.30;;;;;;5073263;28;20482;-75
2022/07/15 01:24:35;;;;;;;7.28;0.63;;;20.00;71.30;;;;;;5072934;28;20028;-75
2022/07/15 01:27:01;;;;;;;5.80;0.73;;;20.10;71.20;;;;;;5073017;28;20487;-75
2022/07/15 01:29:27;;;;;;;5.85;0.75;;;20.10;71.00;;;;;;5073125;28;20024;-75
2022/07/15 01:31:53;;;;;;;4.07;0.50;;;20.10;70.90;;;;;;5072863;28;20059;-75
2022/07/15 01:34:19;;;;;;;4.30;0.70;;;20.10;70.80;;;;;;5072954;28;20044;-75
2022/07/15 01:36:45;;;;;;;3.97;0.65;;;20.10;71.00;;;;;;5072851;28;20028;-75
2022/07/15 01:39:10;;;;;;;2.55;0.40;;;20.10;70.70;;;;;;5072815;28;20055;-75
2022/07/15 01:41:36;;;;;;;5.05;1.17;;;20.00;71.00;;;;;;5072677;28;20390;-75
2022/07/15 01:44:02;;;;;;;4.03;0.70;;;20.10;71.20;;;;;;5072537;28;20028;-75
2022/07/15 01:46:28;;;;;;;7.35;0.60;;;20.10;71.00;;;;;;5072978;28;20070;-75
2022/07/15 01:51:37;;;;;;;5.30;0.52;;;20.10;71.00;;;;;;5072487;28;20059;-75
2022/07/15 01:54:03;;;;;;;6.65;0.55;;;20.10;71.00;;;;;;5072637;28;20021;-75
2022/07/15 01:56:29;;;;;;;5.15;1.13;;;20.10;71.10;;;;;;5072894;28;20074;-75
2022/07/15 01:58:54;;;;;;;2.92;0.50;;;20.00;70.70;;;;;;5072549;28;20028;-75
2022/07/15 02:01:20;;;;;;;3.35;0.40;;;19.90;70.90;;;;;;5072582;28;20078;-75
2022/07/15 02:03:45;;;;;;;5.07;0.75;;;19.90;71.40;;;;;;5072946;28;20035;-75
2022/07/15 02:06:11;;;;;;;3.85;0.70;;;19.90;71.40;;;;;;5072762;28;20028;-75
2022/07/15 02:08:36;;;;;;;6.70;0.52;;;19.80;71.40;;;;;;5072515;28;20025;-75
2022/07/15 02:11:02;;;;;;;2.03;0.43;;;19.90;71.60;;;;;;5073289;28;20116;-75
2022/07/15 02:13:28;;;;;;;2.42;0.45;;;19.80;71.60;;;;;;5076095;28;20043;-75
2022/07/15 02:15:54;;;;;;;4.30;0.60;;;19.90;71.80;;;;;;5076393;28;20032;-75
2022/07/15 02:18:20;;;;;;;4.35;0.63;;;19.80;71.50;;;;;;5076226;28;20082;-75
2022/07/15 02:20:46;;;;;;;7.70;0.60;;;19.80;71.60;;;;;;5075919;28;20094;-75
2022/07/15 02:23:12;;;;;;;6.32;0.60;;;19.80;71.80;;;;;;5076176;28;20051;-75
2022/07/15 02:25:39;;;;;;;5.30;0.47;;;19.90;72.40;;;;;;5076264;28;20384;-75
2022/07/15 02:28:06;;;;;;;4.00;0.35;;;19.90;71.60;;;;;;5075633;28;20021;-75
2022/07/15 02:30:36;;;;;;;5.35;0.70;;;19.90;71.60;;;;;;5075765;28;20459;-75
2022/07/15 02:33:03;;;;;;;2.67;0.47;;;19.90;71.50;;;;;;5076049;28;20459;-75
2022/07/15 02:35:30;;;;;;;4.88;0.50;;;19.80;71.50;;;;;;5075643;28;20479;-75
2022/07/15 02:37:56;;;;;;;5.55;0.65;;;19.70;71.60;;;;;;5075922;28;20436;-75
2022/07/15 02:40:22;;;;;;;4.68;0.52;;;19.60;71.80;;;;;;5075858;28;20029;-75
2022/07/15 02:42:53;;;;;;;4.85;0.68;;;19.50;72.00;;;;;;5075716;28;20044;-75
2022/07/15 02:45:21;;;;;;;3.00;0.50;;;19.50;72.30;;;;;;5075715;28;20021;-75
2022/07/15 02:47:47;;;;;;;4.40;0.50;;;19.40;72.30;;;;;;5075299;28;20025;-75
2022/07/15 02:50:14;;;;;;;4.80;0.50;;;19.40;72.40;;;;;;5075216;28;20047;-75
2022/07/15 02:52:40;;;;;;;6.03;0.60;;;19.30;72.50;;;;;;5075602;28;20036;-75
2022/07/15 02:55:07;;;;;;;3.78;0.52;;;19.30;72.40;;;;;;5075509;28;20078;-75
2022/07/15 02:57:32;;;;;;;4.70;0.50;;;19.20;72.60;;;;;;5075422;28;20040;-75
2022/07/15 02:59:58;;;;;;;3.00;0.40;;;19.20;72.80;;;;;;5075097;28;20024;-75
2022/07/15 03:02:24;;;;;;;5.38;0.60;;;19.10;73.00;;;;;;5075152;28;20494;-75
2022/07/15 03:04:50;;;;;;;4.28;0.55;;;19.10;73.10;;;;;;5075526;28;20028;-75
2022/07/15 03:07:16;;;;;;;5.43;0.60;;;19.10;73.10;;;;;;5075313;28;20025;-75
2022/07/15 03:09:41;;;;;;;3.55;0.43;;;19.10;73.30;;;;;;5075300;28;20456;-75
2022/07/15 03:12:07;;;;;;;2.85;0.35;;;19.10;73.40;;;;;;5074789;28;20029;-75
2022/07/15 03:14:32;;;;;;;4.03;0.52;;;19.20;73.40;;;;;;5075001;28;20033;-75
2022/07/15 03:16:58;;;;;;;5.60;0.52;;;19.30;73.40;;;;;;5075204;28;20021;-75
2022/07/15 03:19:23;;;;;;;7.00;0.63;;;19.30;73.30;;;;;;5075061;28;20025;-75
2022/07/15 03:21:49;;;;;;;2.67;0.32;;;19.30;73.00;;;;;;5074643;28;20028;-75
2022/07/15 03:24:15;;;;;;;4.63;0.60;;;19.30;73.10;;;;;;5074752;28;20073;-75
2022/07/15 03:26:41;;;;;;;4.40;0.68;;;19.20;73.20;;;;;;5074898;28;20075;-75
2022/07/15 03:29:07;;;;;;;5.40;0.43;;;19.20;73.30;;;;;;5074765;28;20025;-75
2022/07/15 03:31:33;;;;;;;7.40;0.77;;;19.10;73.50;;;;;;5074651;28;20040;-75
2022/07/15 03:33:58;;;;;;;4.57;0.57;;;19.10;73.70;;;;;;5074611;28;20154;-75
2022/07/15 03:36:24;;;;;;;3.33;0.50;;;19.10;73.70;;;;;;5074878;28;20029;-75
2022/07/15 03:38:51;;;;;;;5.95;1.02;;;19.10;73.90;;;;;;5074644;28;20020;-75
2022/07/15 03:41:18;;;;;;;6.07;0.57;;;19.10;73.70;;;;;;5074361;28;20024;-75
2022/07/15 03:43:44;;;;;;;3.10;0.52;;;19.00;73.90;;;;;;5074487;28;20032;-75
2022/07/15 03:46:10;;;;;;;6.00;0.40;;;19.00;73.90;;;;;;5074321;28;20021;-75
2022/07/15 03:48:35;;;;;;;2.78;0.65;;;18.90;74.20;;;;;;5074523;28;20055;-75
2022/07/15 03:51:01;;;;;;;5.18;0.70;;;18.80;74.30;;;;;;5073992;28;20041;-75
2022/07/15 03:53:27;;;;;;;2.55;0.50;;;18.80;74.70;;;;;;5074431;28;20033;-75
2022/07/15 03:55:52;;;;;;;6.07;0.63;;;18.80;74.80;;;;;;5074308;28;20024;-75
2022/07/15 03:58:18;;;;;;;5.25;0.63;;;18.70;74.90;;;;;;5074247;28;20471;-75
2022/07/15 04:00:43;;;;;;;3.72;0.50;;;18.70;75.10;;;;;;5074067;28;20021;-75
2022/07/15 04:03:09;;;;;;;3.72;0.40;;;18.70;75.40;;;;;;5074104;28;20108;-75
2022/07/15 04:05:35;;;;;;;6.20;0.70;;;18.60;75.40;;;;;;5074031;28;20029;-75
2022/07/15 04:08:00;;;;;;;5.13;0.45;;;18.60;75.70;;;;;;5074290;28;20431;-75
2022/07/15 04:10:26;;;;;;;5.97;0.70;;;18.60;75.70;;;;;;5073852;28;20028;-75
2022/07/15 04:12:52;;;;;;;5.13;0.77;;;18.60;75.80;;;;;;5073811;28;20033;-75
2022/07/15 04:15:17;;;;;;;5.97;0.40;;;18.60;76.40;;;;;;5073975;28;20031;-75
2022/07/15 04:17:43;;;;;;;5.60;0.57;;;18.60;75.80;;;;;;5073960;28;20024;-75
2022/07/15 04:20:09;;;;;;;5.90;0.70;;;18.60;75.90;;;;;;5074047;28;20525;-75
2022/07/15 04:22:42;;;;;;;4.43;0.50;;;18.60;76.00;;;;;;5073941;28;20376;-75
2022/07/15 04:25:14;;;;;;;6.18;1.05;;;18.50;76.00;;;;;;5074011;28;20032;-75
2022/07/15 04:27:39;;;;;;;5.57;0.40;;;18.50;76.10;;;;;;5073444;28;20387;-75
2022/07/15 04:30:06;;;;;;;7.18;0.68;;;18.50;76.30;;;;;;5073831;28;20029;-75
2022/07/15 04:32:32;;;;;;;4.60;0.43;;;18.50;76.40;;;;;;5073682;28;20042;-75
2022/07/15 04:34:58;;;;;;;6.80;0.57;;;18.50;76.20;;;;;;5072823;28;20476;-75
2022/07/15 04:37:23;;;;;;;6.97;0.70;;;18.40;76.20;;;;;;5073549;28;20025;-75
2022/07/15 04:39:49;;;;;;;7.63;0.98;;;18.40;76.40;;;;;;5073777;28;20052;-75
2022/07/15 04:42:15;;;;;;;6.30;0.30;;;18.20;76.70;;;;;;5073284;28;20017;-75
2022/07/15 04:44:41;;;;;;;5.53;0.65;;;18.20;77.10;;;;;;5073693;28;20043;-75
2022/07/15 04:47:06;;;;;;;5.90;0.60;;;18.20;77.00;;;;;;5073356;28;20024;-75
2022/07/15 04:52:16;;;;;;;2.83;0.60;;;18.30;77.10;;;;;;5073329;28;20522;-75
2022/07/15 04:54:43;;;;;;;3.83;0.60;;;18.30;77.00;;;;;;5073309;28;20520;-75
2022/07/15 04:57:11;;;;;;;5.63;0.60;;;18.30;77.00;;;;;;5073136;28;20048;-75
2022/07/15 04:59:37;;;;;;;6.85;1.08;;;18.30;77.00;;;;;;5073240;28;20436;-75
2022/07/15 05:02:03;;;;;;;2.85;0.50;;;18.20;77.10;;;;;;5073174;28;20059;-75
2022/07/15 05:04:28;;;;;;;2.60;0.30;;;18.30;77.20;;;;;;5073158;28;20067;-75
2022/07/15 05:06:54;;;;;;;4.80;1.05;;;18.30;77.20;;;;;;5073203;28;20021;-75
2022/07/15 05:09:20;;;;;;;6.43;0.57;;;18.20;77.30;;;;;;5073035;28;20027;-75
2022/07/15 05:11:45;;;;;;;5.38;0.43;;;18.20;77.50;;;;;;5073053;28;20037;-75
2022/07/15 05:14:11;;;;;;;5.13;0.47;;;18.30;77.50;;;;;;5073438;28;20371;-75
2022/07/15 05:16:36;;;;;;;7.03;0.50;;;18.30;77.60;;;;;;5073294;28;20020;-75
2022/07/15 05:19:02;;;;;;;2.63;0.30;;;18.40;77.40;;;;;;5072954;28;20111;-75
2022/07/15 05:21:28;;;;;;;5.00;0.60;;;18.50;77.30;;;;;;5073289;28;20051;-75
2022/07/15 05:23:53;;;;;;;4.25;0.63;;;18.50;77.20;;;;;;5072925;28;20031;-75
2022/07/15 05:26:19;;;;;;;5.75;0.60;;;18.50;77.00;;;;;;5073276;28;20025;-75
2022/07/15 05:28:45;;;;;;;5.63;0.65;;;18.50;77.00;;;;;;5073161;28;20070;-75
2022/07/15 05:31:10;;;;;;;5.20;0.63;;;18.50;77.00;;;;;;5073195;28;20480;-75
2022/07/15 05:33:36;;;;;;;8.63;0.60;;;18.60;77.60;;;;;;5072868;28;20107;-75
2022/07/15 05:36:02;;;;;;;4.82;0.60;;;18.60;76.90;;;;;;5072874;28;20020;-75
2022/07/15 05:38:27;;;;;;;7.13;0.80;;;18.60;77.00;;;;;;5072903;28;20112;-75
2022/07/15 05:40:53;;;;;;;6.38;0.63;;;18.60;77.00;;;;;;5073106;28;20111;-75
2022/07/15 05:43:19;;;;;;;6.68;0.60;;;18.60;77.20;;;;;;5072735;28;20395;-75
2022/07/15 05:45:45;;;;;;;5.38;0.63;;;18.50;77.10;;;;;;5075097;28;20035;-75
2022/07/15 05:48:10;;;;;;;6.32;1.10;;;18.60;77.40;;;;;;5076894;28;20024;-75
2022/07/15 05:50:36;;;;;;;7.07;0.68;;;18.70;77.40;;;;;;5076575;28;20568;-75
2022/07/15 05:53:02;;;;;;;4.90;0.55;;;18.70;77.10;;;;;;5076589;28;20078;-75
2022/07/15 05:55:28;;;;;;;6.40;0.80;;;18.80;76.90;;;;;;5076668;28;20028;-75
2022/07/15 05:57:53;;;;;;;6.15;0.47;;;18.80;76.60;;;;;;5076450;28;20346;-75
2022/07/15 06:00:19;;;;;;;6.57;0.50;;;18.70;76.80;;;;;;5076218;28;20017;-75
2022/07/15 06:02:45;;;;;;;2.72;0.47;;;18.80;77.10;;;;;;5076522;28;20035;-75
2022/07/15 06:05:11;;;;;;;6.10;0.45;;;18.90;77.40;;;;;;5076688;28;20413;-75
2022/07/15 06:07:37;;;;;;;3.47;0.40;;;19.00;77.30;;;;;;5076444;28;20025;-75
2022/07/15 06:10:07;;;;;;;4.45;0.55;;;19.00;77.00;;;;;;5075404;28;20087;-79
2022/07/15 06:12:32;;;;;;;2.17;0.32;;;19.10;79.80;;;;;;5075663;28;20486;-79
2022/07/15 06:14:58;;;;;;;2.92;0.40;;;19.50;79.60;;;;;;5082930;28;20031;-79
2022/07/15 06:17:24;;;;;;;5.28;0.90;;;20.00;78.30;;;;;;5082815;28;20031;-79
2022/07/15 06:19:49;;;;;;;2.08;0.32;;;20.40;76.00;;;;;;5076246;28;20017;-78
2022/07/15 06:22:15;;;;;;;6.97;0.43;;;20.70;75.20;;;;;;5075325;28;20016;-78
2022/07/15 06:24:40;;;;;;;3.95;0.50;;;20.90;73.70;;;;;;5074251;28;20115;-77
2022/07/15 06:27:06;;;;;;;3.90;0.40;;;21.10;72.90;;;;;;5073599;28;20598;-76
2022/07/15 06:29:32;;;;;;;3.30;0.40;;;21.20;72.20;;;;;;5074716;28;20021;-79
2022/07/15 06:31:58;;;;;;;5.93;0.50;;;21.40;71.70;;;;;;5073679;28;20448;-76
2022/07/15 06:34:24;;;;;;;3.90;0.57;;;21.50;71.00;;;;;;5074941;28;20039;-76
2022/07/15 06:36:50;;;;;;;4.32;0.60;;;21.50;70.20;;;;;;5074592;28;20100;-73
2022/07/15 06:39:16;;;;;;;4.93;0.50;;;21.30;70.00;;;;;;5074883;28;20076;-74
2022/07/15 06:41:42;;;;;;;5.72;0.73;;;21.20;71.80;;;;;;5074163;28;20029;-74
2022/07/15 06:44:08;;;;;;;3.83;0.65;;;21.20;69.60;;;;;;5073594;28;20104;-75
2022/07/15 06:46:34;;;;;;;4.15;0.50;;;20.90;70.10;;;;;;5074096;28;20431;-75
2022/07/15 06:48:59;;;;;;;5.47;0.60;;;20.70;70.00;;;;;;5074012;28;20032;-75
2022/07/15 06:51:25;;;;;;;6.93;0.63;;;20.50;71.70;;;;;;5074550;28;20049;-74
2022/07/15 06:53:50;;;;;;;7.60;0.50;;;20.70;70.10;;;;;;5073916;28;20081;-75
2022/07/15 06:56:16;;;;;;;3.75;0.52;;;20.70;69.80;;;;;;5072974;28;20028;-75
2022/07/15 06:58:42;;;;;;;4.68;0.73;;;20.70;71.60;;;;;;5073990;28;20383;-75
2022/07/15 07:01:07;;;;;;;3.00;0.57;;;21.00;70.60;;;;;;5073075;28;20016;-74
2022/07/15 07:03:33;;;;;;;7.53;0.70;;;21.10;69.30;;;;;;5074852;28;20017;-74
2022/07/15 07:05:58;;;;;;;2.30;0.30;;;21.30;69.30;;;;;;5074982;28;20059;-75
2022/07/15 07:08:25;;;;;;;4.97;0.50;;;21.40;68.60;;;;;;5074636;28;20074;-75
2022/07/15 07:10:51;;;;;;;3.33;0.45;;;21.50;68.20;;;;;;5075110;28;20070;-75
2022/07/15 07:13:16;;;;;;;2.78;0.52;;;21.70;68.30;;;;;;5075095;28;20384;-74
2022/07/15 07:15:42;;;;;;;5.28;0.50;;;21.80;67.50;;;;;;5074970;28;20020;-74
2022/07/15 07:18:08;;;;;;;6.72;0.50;;;22.00;67.30;;;;;;5075127;28;20031;-74
2022/07/15 07:20:33;;;;;;;5.22;0.50;;;22.00;66.00;;;;;;5074491;28;20027;-73
2022/07/15 07:22:59;;;;;;;5.07;0.30;;;22.00;66.50;;;;;;5075067;28;20020;-74
2022/07/15 07:25:24;;;;;;;3.70;0.60;;;22.10;66.40;;;;;;5075043;28;20020;-74
2022/07/15 07:27:50;;;;;;;5.50;0.68;;;22.00;66.50;;;;;;5074514;28;20384;-74
2022/07/15 07:30:17;;;;;;;2.42;0.63;;;22.00;65.80;;;;;;5074555;28;20039;-73
2022/07/15 07:32:42;;;;;;;4.72;0.40;;;22.00;64.80;;;;;;5074319;28;20549;-74
2022/07/15 07:35:08;;;;;;;4.35;0.40;;;21.90;64.40;;;;;;5074774;28;20171;-74
2022/07/15 07:37:38;;;;;;;3.65;0.40;;;21.70;64.70;;;;;;5074662;28;20044;-73
2022/07/15 07:40:05;;;;;;;6.50;0.85;;;21.30;65.60;;;;;;5074453;28;20095;-73
2022/07/15 07:42:30;;;;;;;6.43;0.45;;;21.00;66.80;;;;;;5074420;28;20054;-73
2022/07/15 07:44:56;;;;;;;3.50;0.35;;;21.10;66.00;;;;;;5074112;28;20025;-73
2022/07/15 07:47:21;;;;;;;2.47;0.50;;;21.20;65.80;;;;;;5074533;28;20025;-74
2022/07/15 07:49:48;;;;;;;2.60;0.30;;;21.40;65.50;;;;;;5073853;28;20024;-73
2022/07/15 07:52:15;;;;;;;3.05;0.30;;;21.50;65.50;;;;;;5073863;28;20110;-75
2022/07/15 07:54:41;;;;;;;3.67;0.20;;;21.70;63.80;;;;;;5073716;28;20051;-75
2022/07/15 07:57:07;;;;;;;2.97;0.28;;;21.70;63.50;;;;;;5073047;28;20416;-75
2022/07/15 07:59:33;;;;;;;4.22;0.40;;;21.70;63.50;;;;;;5072454;28;20056;-76
2022/07/15 08:01:59;;;;;;;4.07;0.43;;;21.80;63.10;;;;;;5072003;28;20024;-74
2022/07/15 08:04:24;;;;;;;3.67;0.35;;;22.00;62.10;;;;;;5072309;28;20127;-76
2022/07/15 08:06:51;;;;;;;1.48;0.20;;;22.10;61.90;;;;;;5073233;28;20112;-74
2022/07/15 08:09:17;;;;;;;2.03;0.40;;;22.20;60.80;;;;;;5072039;28;20414;-73
2022/07/15 08:11:44;;;;;;;1.65;0.20;;;22.20;60.50;;;;;;5072195;28;20028;-74
2022/07/15 08:14:10;;;;;;;2.85;0.30;;;22.20;61.30;;;;;;5072740;28;20482;-76
2022/07/15 08:16:36;;;;;;;2.10;0.28;;;22.20;60.90;;;;;;5072659;28;20111;-74
2022/07/15 08:19:02;;;;;;;2.22;0.30;;;22.10;61.60;;;;;;5071698;28;20024;-74
2022/07/15 08:21:28;;;;;;;5.28;0.30;;;22.10;62.30;;;;;;5072494;28;20536;-74
2022/07/15 08:23:54;;;;;;;4.07;0.20;;;22.00;62.20;;;;;;5071575;28;20024;-74
2022/07/15 08:26:23;;;;;;;2.60;0.30;;;21.90;61.80;;;;;;5072165;28;20028;-74
2022/07/15 08:28:52;;;;;;;4.65;0.30;;;21.60;62.70;;;;;;5071892;28;21243;-74
2022/07/15 08:31:19;;;;;;;2.08;0.15;;;21.50;63.20;;;;;;5072020;28;20024;-74
2022/07/15 08:33:45;;;;;;;1.77;0.22;;;21.40;63.70;;;;;;5071858;28;20126;-73
2022/07/15 08:36:11;;;;;;;3.85;0.30;;;21.40;64.40;;;;;;5072006;28;20056;-74
2022/07/15 08:38:37;;;;;;;3.95;0.45;;;21.60;64.10;;;;;;5072188;28;20388;-74
2022/07/15 08:41:03;;;;;;;3.03;0.20;;;21.80;63.10;;;;;;5072001;28;20017;-73
2022/07/15 08:43:29;;;;;;;2.75;0.38;;;21.90;60.40;;;;;;5071551;28;20356;-73
2022/07/15 08:45:55;;;;;;;2.13;0.20;;;21.80;59.70;;;;;;5071624;28;20104;-74
2022/07/15 08:48:26;;;;;;;1.55;0.35;;;21.90;59.90;;;;;;5071295;28;20048;-74
2022/07/15 08:50:53;;;;;;;4.00;0.20;;;21.80;59.50;;;;;;5072269;28;20052;-74
2022/07/15 08:53:18;;;;;;;3.40;0.20;;;21.80;59.20;;;;;;5071824;28;20071;-74
2022/07/15 08:55:46;;;;;;;1.63;0.25;;;21.70;59.40;;;;;;5068714;28;20056;-73
2022/07/15 08:58:11;;;;;;;1.58;0.28;;;21.70;59.60;;;;;;5071692;28;20028;-73
2022/07/15 09:00:38;;;;;;;2.38;0.25;;;21.70;60.30;;;;;;5071080;28;20030;-73
2022/07/15 09:03:05;;;;;;;1.63;0.30;;;21.80;60.20;;;;;;5071997;28;20050;-74
2022/07/15 09:05:33;;;;;;;2.35;0.20;;;21.80;60.40;;;;;;5072026;28;20020;-74
2022/07/15 09:08:04;;;;;;;3.35;0.50;;;21.80;60.30;;;;;;5071290;28;20048;-75
2022/07/15 09:10:52;;;;;;;1.55;0.25;;;21.80;60.10;;;;;;5071231;28;20376;-73
2022/07/15 09:13:38;;;;;;;2.60;0.28;;;21.60;60.80;;;;;;5071614;28;20028;-73
2022/07/15 09:16:08;;;;;;;3.20;0.30;;;21.70;61.20;;;;;;5071355;28;20042;-73
2022/07/15 09:18:36;;;;;;;2.53;0.30;;;21.70;61.40;;;;;;5071297;28;20429;-72
2022/07/15 09:21:02;;;;;;;3.42;0.30;;;21.70;61.60;;;;;;5074211;28;20031;-73
2022/07/15 09:23:29;;;;;;;5.55;0.40;;;21.80;61.60;;;;;;5075387;28;20468;-73
2022/07/15 09:26:28;;;;;;;2.80;0.20;;;21.90;61.40;;;;;;5075457;28;20040;-73
2022/07/15 09:28:55;;;;;;;5.60;0.40;;;21.90;61.40;;;;;;5073285;28;20378;-72
2022/07/15 09:34:23;;;;;;;3.25;0.40;;;21.80;61.20;;;;;;5073301;28;20085;-73
2022/07/15 09:36:54;;;;;;;4.13;0.40;;;21.70;61.40;;;;;;5075864;28;20028;-75
2022/07/15 09:39:21;;;;;;;3.63;0.40;;;21.60;61.80;;;;;;5075286;28;20038;-72
2022/07/15 09:41:47;;;;;;;2.03;0.30;;;21.60;62.20;;;;;;5075175;28;20479;-74
2022/07/15 09:44:14;;;;;;;6.10;0.22;;;21.70;62.40;;;;;;5075328;28;20430;-73
2022/07/15 09:46:43;;;;;;;6.75;0.63;;;21.80;62.40;;;;;;5074372;28;20028;-73
2022/07/15 09:49:10;;;;;;;4.50;0.40;;;21.90;62.60;;;;;;5075511;28;20048;-73
2022/07/15 09:51:49;;;;;;;5.85;0.47;;;21.90;61.90;;;;;;5074347;28;20547;-73
2022/07/15 09:54:15;;;;;;;4.07;0.38;;;22.00;61.40;;;;;;5074966;28;20033;-72
2022/07/15 09:56:40;;;;;;;4.20;0.35;;;22.10;61.80;;;;;;5076011;28;20029;-72
2022/07/15 09:59:08;;;;;;;5.15;0.38;;;22.20;62.00;;;;;;5074990;28;20058;-73
2022/07/15 10:01:34;;;;;;;2.88;0.30;;;22.30;61.40;;;;;;5075478;28;20024;-73
2022/07/15 10:04:00;;;;;;;2.92;0.30;;;22.30;60.50;;;;;;5077519;28;20391;-73
2022/07/15 10:06:27;;;;;;;4.75;0.20;;;22.30;60.10;;;;;;5073252;28;20217;-73
2022/07/15 10:08:54;;;;;;;5.97;0.35;;;22.20;59.40;;;;;;5075244;28;20115;-73
2022/07/15 10:11:20;;;;;;;2.55;0.30;;;22.20;59.80;;;;;;5076348;28;20021;-73
2022/07/15 10:14:23;;;;;;;3.70;0.35;;;22.30;59.50;;;;;;5076042;28;20037;-73
2022/07/15 10:17:19;;;;;;;2.38;0.20;;;22.30;60.40;;;;;;5075766;28;20051;-72
2022/07/15 10:20:17;;;;;;;3.38;0.40;;;22.40;60.20;;;;;;5075797;28;20032;-72
2022/07/15 10:22:57;;;;;;;3.60;0.20;;;22.70;60.00;;;;;;5076151;28;20021;-72
2022/07/15 10:25:43;;;;;;;4.07;0.82;;;22.80;59.20;;;;;;5074857;28;20115;-73
2022/07/15 10:28:22;;;;;;;4.65;0.50;;;22.70;58.60;;;;;;5066575;28;20065;-72
2022/07/15 10:31:13;;;;;;;1.95;0.20;;;22.70;58.50;;;;;;5073459;28;20119;-73
2022/07/15 10:33:39;;;;;;;1.55;0.20;;;22.80;58.80;;;;;;5072341;28;20028;-73
2022/07/15 10:36:06;;;;;;;2.47;0.20;;;22.90;57.90;;;;;;5074270;28;20035;-73
2022/07/15 10:38:37;;;;;;;3.17;0.75;;;22.90;58.00;;;;;;5074116;28;20115;-73
2022/07/15 10:41:09;;;;;;;4.95;0.25;;;23.00;58.80;;;;;;5072350;28;20081;-73
2022/07/15 10:43:45;;;;;;;;;;;23.20;58.50;;;;;;5074150;28;20479;-73
2022/07/15 10:46:19;;;;;;;3.28;0.10;;;23.50;58.20;;;;;;5074168;28;19908;-73
2022/07/15 10:49:00;;;;;;;1.15;0.22;;;23.70;57.00;;;;;;5074066;28;20029;-72
2022/07/15 10:51:35;;;;;;;3.08;0.20;;;23.70;56.90;;;;;;5073810;28;20466;-74
2022/07/15 10:54:21;;;;;;;2.15;0.20;;;23.80;57.20;;;;;;5073486;28;20049;-74
2022/07/15 10:56:51;;;;;;;2.83;0.20;;;23.80;57.20;;;;;;5071237;28;20051;-73
2022/07/15 10:59:19;;;;;;;2.15;0.10;;;23.70;56.00;;;;;;5074981;28;20426;-73
2022/07/15 11:01:47;;;;;;;1.98;0.30;;;23.50;56.90;;;;;;5075264;28;20027;-73
2022/07/15 11:04:20;;;;;;;0.73;0.30;;;23.30;57.40;;;;;;5075188;28;20024;-72
2022/07/15 11:07:06;;;;;;;1.10;0.10;;;23.30;58.00;;;;;;5075027;28;20029;-73
2022/07/15 11:09:56;;;;;;;3.65;0.15;;;23.30;57.70;;;;;;5074765;28;20021;-73
2022/07/15 11:12:30;;;;;;;3.83;0.20;;;23.30;58.40;;;;;;5074818;28;20046;-73
2022/07/15 11:14:59;;;;;;;2.95;0.40;;;23.40;57.90;;;;;;5074888;28;20103;-74
2022/07/15 11:17:46;;;;;;;2.58;0.35;;;23.50;57.40;;;;;;5074909;28;20036;-74
2022/07/15 11:20:14;;;;;;;1.08;0.10;;;23.70;56.50;;;;;;5074698;28;20052;-73
2022/07/15 11:22:45;;;;;;;4.00;0.30;;;23.60;57.20;;;;;;5074580;28;20539;-72
2022/07/15 11:25:18;;;;;;;5.22;0.35;;;23.50;56.90;;;;;;5075156;28;20103;-73
2022/07/15 11:27:56;;;;;;;1.92;0.20;;;23.40;56.80;;;;;;5074569;28;20025;-72
2022/07/15 11:30:21;;;;;;;1.38;0.20;;;23.10;56.70;;;;;;5074433;28;20032;-72
2022/07/15 11:32:57;;;;;;;2.78;0.20;;;22.90;57.30;;;;;;5074437;28;20040;-72
2022/07/15 11:35:24;;;;;;;2.75;0.25;;;22.80;58.20;;;;;;5073236;28;20055;-75
2022/07/15 11:38:03;;;;;;;2.15;0.40;;;22.80;58.90;;;;;;5070282;28;20032;-74
2022/07/15 11:46:04;;;;;;;3.17;0.20;;;23.40;57.90;;;;;;5073272;28;20031;-74
2022/07/15 11:48:37;;;;;;;1.95;0.25;;;23.70;57.40;;;;;;5072429;28;20070;-74
2022/07/15 11:51:04;;;;;;;3.78;0.30;;;24.10;58.10;;;;;;5070878;28;20438;-74
2022/07/15 11:53:41;;;;;;;3.00;0.20;;;24.20;56.40;;;;;;5072406;28;20502;-74
2022/07/15 11:56:08;;;;;;;2.70;0.55;;;24.10;55.70;;;;;;5073138;28;20033;-75
2022/07/15 11:58:43;;;;;;;1.05;0.10;;;24.00;55.80;;;;;;5066113;28;20392;-78
2022/07/15 12:01:14;;;;;;;1.27;0.20;;;23.90;56.30;;;;;;5070893;28;20036;-78
2022/07/15 12:03:43;;;;;;;1.90;0.20;;;23.80;56.70;;;;;;5072192;28;20020;-78
2022/07/15 12:06:10;;;;;;;4.05;0.30;;;23.70;56.90;;;;;;5072169;28;20032;-76
2022/07/15 12:08:42;;;;;;;2.42;0.30;;;23.60;57.30;;;;;;5072795;28;20111;-76
2022/07/15 12:11:18;;;;;;;3.10;0.20;;;23.50;57.30;;;;;;5072094;28;20028;-76
2022/07/15 12:13:48;;;;;;;4.68;0.50;;;23.60;57.80;;;;;;5072375;28;20052;-77
2022/07/15 12:16:19;;;;;;;3.60;0.22;;;23.70;57.30;;;;;;5070364;28;20387;-76
2022/07/15 12:18:46;;;;;;;1.25;0.10;;;23.80;57.00;;;;;;5072107;28;20107;-76
2022/07/15 12:21:12;;;;;;;2.05;0.20;;;23.70;56.80;;;;;;5071635;28;20040;-77
2022/07/15 12:23:37;;;;;;;2.83;0.20;;;23.60;57.10;;;;;;5071751;28;20055;-76
2022/07/15 12:26:09;;;;;;;2.22;0.20;;;23.60;57.30;;;;;;5072429;28;20070;-76
2022/07/15 12:28:35;;;;;;;4.03;0.25;;;23.60;57.20;;;;;;5072084;28;20044;-79
2022/07/15 12:31:02;;;;;;;2.55;0.30;;;23.60;56.70;;;;;;5072151;28;20021;-76
2022/07/15 12:33:32;;;;;;;2.28;0.30;;;23.50;56.80;;;;;;5071561;28;20500;-77
2022/07/15 12:36:18;;;;;;;2.30;0.28;;;23.60;57.00;;;;;;5072106;28;20054;-74
2022/07/15 12:38:44;;;;;;;2.63;0.25;;;23.70;56.40;;;;;;5071677;28;20111;-73
2022/07/15 12:41:23;;;;;;;3.95;0.20;;;23.80;56.40;;;;;;5071779;28;20027;-73
2022/07/15 12:43:55;;;;;;;1.55;0.20;;;23.90;56.00;;;;;;5072071;28;20024;-73
2022/07/15 12:46:41;;;;;;;2.38;0.35;;;23.90;56.20;;;;;;5071395;28;20056;-73
2022/07/15 12:49:07;;;;;;;1.67;0.38;;;23.80;56.40;;;;;;5072875;28;20033;-73
2022/07/15 12:51:34;;;;;;;3.17;0.20;;;23.70;55.40;;;;;;5073147;28;20048;-73
2022/07/15 12:54:04;;;;;;;1.63;0.50;;;23.60;54.60;;;;;;5072631;28;20062;-73
2022/07/15 12:56:30;;;;;;;3.80;0.30;;;23.30;54.80;;;;;;5073075;28;20375;-73
2022/07/15 12:58:56;;;;;;;2.70;0.40;;;23.20;55.20;;;;;;5072431;28;20021;-73
2022/07/15 13:01:21;;;;;;;2.67;0.13;;;23.10;55.70;;;;;;5072976;28;20487;-73
2022/07/15 13:03:47;;;;;;;2.28;0.30;;;23.10;56.00;;;;;;5072888;28;20024;-73
2022/07/15 13:06:14;;;;;;;1.38;0.10;;;23.00;56.30;;;;;;5073309;28;20104;-73